createdAt,value
2023-06-21T00:00:12.450Z,164.13
2023-06-21T00:01:12.539Z,179.30
2023-06-21T00:02:11.483Z,187.48
2023-06-21T00:03:12.629Z,191.45
2023-06-21T00:04:11.643Z,189.91
2023-06-21T00:05:12.614Z,190.14
2023-06-21T00:06:12.661Z,194.96
2023-06-21T00:07:12.682Z,196.39
2023-06-21T00:08:12.655Z,195.70
2023-06-21T00:09:12.726Z,196.03
2023-06-21T00:10:12.689Z,191.98
2023-06-21T00:11:12.804Z,189.51
2023-06-21T00:12:12.780Z,180.22
2023-06-21T00:13:11.790Z,187.43
2023-06-21T00:14:12.917Z,194.80
2023-06-21T00:15:12.856Z,216.40
2023-06-21T00:16:12.913Z,215.74
2023-06-21T00:17:12.934Z,215.42
2023-06-21T00:18:12.996Z,221.13
2023-06-21T00:19:13.110Z,216.51
2023-06-21T00:20:13.088Z,208.63
2023-06-21T00:21:13.151Z,209.78
2023-06-21T00:22:12.159Z,215.91
2023-06-21T00:23:13.192Z,208.78
2023-06-21T00:24:13.254Z,211.64
2023-06-21T00:25:12.334Z,213.62
2023-06-21T00:26:13.359Z,216.12
2023-06-21T00:27:13.440Z,208.88
2023-06-21T00:28:13.353Z,202.84
2023-06-21T00:29:13.450Z,200.17
2023-06-21T00:30:13.435Z,204.51
2023-06-21T00:31:13.516Z,197.10
2023-06-21T00:32:13.516Z,194.46
2023-06-21T00:33:13.561Z,193.50
2023-06-21T00:34:13.555Z,193.77
2023-06-21T00:35:12.575Z,200.97
2023-06-21T00:36:12.537Z,210.09
2023-06-21T00:37:13.597Z,205.83
2023-06-21T00:38:12.598Z,204.93
2023-06-21T00:39:12.654Z,201.98
2023-06-21T00:40:13.744Z,199.47
2023-06-21T00:41:13.747Z,192.73
2023-06-21T00:42:13.798Z,189.04
2023-06-21T00:43:13.844Z,193.49
2023-06-21T00:44:13.859Z,188.42
2023-06-21T00:45:13.910Z,184.52
2023-06-21T00:46:13.980Z,171.06
2023-06-21T00:47:13.077Z,169.67
2023-06-21T00:48:14.062Z,162.34
2023-06-21T00:49:14.068Z,162.49
2023-06-21T00:50:14.136Z,158.57
2023-06-21T00:51:14.117Z,152.11
2023-06-21T00:52:13.137Z,156.36
2023-06-21T00:53:13.254Z,168.15
2023-06-21T00:54:14.266Z,163.27
2023-06-21T00:55:14.306Z,160.97
2023-06-21T00:56:14.395Z,159.88
2023-06-21T00:57:14.406Z,160.52
2023-06-21T00:58:14.466Z,158.62
2023-06-21T00:59:14.565Z,157.14
2023-06-21T01:00:13.572Z,174.75
2023-06-21T01:01:14.685Z,174.97
2023-06-21T01:02:14.798Z,182.28
2023-06-21T01:03:14.690Z,182.26
2023-06-21T01:04:14.682Z,188.58
2023-06-21T01:05:13.830Z,180.95
2023-06-21T01:06:14.813Z,182.65
2023-06-21T01:07:13.890Z,192.61
2023-06-21T01:08:13.945Z,206.82
2023-06-21T01:09:14.968Z,217.80
2023-06-21T01:10:15.025Z,218.94
2023-06-21T01:11:15.124Z,220.40
2023-06-21T01:12:15.130Z,224.00
2023-06-21T01:13:15.198Z,226.60
2023-06-21T01:14:15.292Z,229.91
2023-06-21T01:15:15.260Z,235.79
2023-06-21T01:16:14.306Z,241.53
2023-06-21T01:17:14.318Z,243.89
2023-06-21T01:18:15.263Z,246.43
2023-06-21T01:19:15.289Z,249.96
2023-06-21T01:20:15.335Z,250.00
2023-06-21T01:21:15.307Z,249.38
2023-06-21T01:22:15.336Z,248.62
2023-06-21T01:23:14.340Z,247.21
2023-06-21T01:24:14.450Z,246.74
2023-06-21T01:25:15.368Z,244.05
2023-06-21T01:26:15.471Z,242.02
2023-06-21T01:27:15.410Z,236.68
2023-06-21T01:28:15.468Z,235.23
2023-06-21T01:29:14.447Z,237.14
2023-06-21T01:30:14.499Z,236.61
2023-06-21T01:31:15.513Z,234.97
2023-06-21T01:32:15.536Z,233.71
2023-06-21T01:33:14.504Z,231.60
2023-06-21T01:34:15.591Z,234.33
2023-06-21T01:35:15.546Z,234.69
2023-06-21T01:36:15.538Z,233.67
2023-06-21T01:37:15.534Z,234.21
2023-06-21T01:38:14.596Z,233.17
2023-06-21T01:39:14.599Z,235.44
2023-06-21T01:40:14.570Z,233.27
2023-06-21T01:41:15.600Z,229.11
2023-06-21T01:42:15.652Z,226.42
2023-06-21T01:43:14.695Z,225.95
2023-06-21T01:44:15.754Z,224.44
2023-06-21T01:45:15.805Z,224.33
2023-06-21T01:46:15.806Z,226.25
2023-06-21T01:47:15.791Z,228.32
2023-06-21T01:48:14.836Z,227.02
2023-06-21T01:49:15.937Z,225.19
2023-06-21T01:50:15.927Z,228.73
2023-06-21T01:51:16.009Z,227.31
2023-06-21T01:52:14.984Z,224.89
2023-06-21T01:53:15.990Z,217.76
2023-06-21T01:54:16.046Z,213.92
2023-06-21T01:55:16.056Z,213.76
2023-06-21T01:56:16.088Z,212.61
2023-06-21T01:57:16.116Z,207.41
2023-06-21T01:58:15.100Z,201.52
2023-06-21T01:59:15.136Z,200.42
2023-06-21T02:00:15.136Z,209.41
2023-06-21T02:01:15.188Z,216.18
2023-06-21T02:02:16.199Z,222.88
2023-06-21T02:03:16.235Z,212.46
2023-06-21T02:04:16.326Z,204.70
2023-06-21T02:05:16.295Z,211.28
2023-06-21T02:06:16.337Z,213.35
2023-06-21T02:07:16.387Z,212.15
2023-06-21T02:08:16.417Z,207.65
2023-06-21T02:09:15.477Z,201.02
2023-06-21T02:10:15.532Z,198.10
2023-06-21T02:11:16.498Z,194.78
2023-06-21T02:12:16.532Z,200.43
2023-06-21T02:13:16.586Z,203.64
2023-06-21T02:14:16.582Z,201.84
2023-06-21T02:15:15.746Z,200.10
2023-06-21T02:16:16.639Z,201.04
2023-06-21T02:17:16.649Z,205.71
2023-06-21T02:18:16.706Z,213.03
2023-06-21T02:19:16.815Z,220.96
2023-06-21T02:20:16.824Z,225.11
2023-06-21T02:21:16.839Z,227.55
2023-06-21T02:22:16.919Z,221.62
2023-06-21T02:23:16.907Z,221.75
2023-06-21T02:24:16.987Z,222.48
2023-06-21T02:25:15.994Z,223.33
2023-06-21T02:26:16.036Z,217.23
2023-06-21T02:27:17.108Z,217.05
2023-06-21T02:28:17.048Z,213.83
2023-06-21T02:29:17.102Z,210.43
2023-06-21T02:30:16.137Z,213.80
2023-06-21T02:31:16.151Z,222.86
2023-06-21T02:32:17.180Z,227.68
2023-06-21T02:33:17.261Z,232.53
2023-06-21T02:34:16.265Z,233.11
2023-06-21T02:35:16.380Z,239.10
2023-06-21T02:36:17.424Z,239.58
2023-06-21T02:37:17.428Z,243.01
2023-06-21T02:38:17.540Z,244.90
2023-06-21T02:39:17.620Z,247.35
2023-06-21T02:40:17.630Z,249.03
2023-06-21T02:41:17.712Z,249.93
2023-06-21T02:42:16.841Z,250.03
2023-06-21T02:43:17.763Z,250.11
2023-06-21T02:44:17.824Z,250.01
2023-06-21T02:45:17.865Z,249.51
2023-06-21T02:46:17.862Z,249.86
2023-06-21T02:47:17.908Z,249.56
2023-06-21T02:48:17.917Z,249.31
2023-06-21T02:49:16.966Z,247.58
2023-06-21T02:50:16.945Z,245.89
2023-06-21T02:51:17.949Z,243.74
2023-06-21T02:52:18.003Z,243.16
2023-06-21T02:53:17.976Z,243.63
2023-06-21T02:54:18.017Z,238.18
2023-06-21T02:55:17.963Z,236.85
2023-06-21T02:56:17.984Z,237.39
2023-06-21T02:57:18.031Z,239.23
2023-06-21T02:58:18.033Z,235.71
2023-06-21T02:59:18.081Z,234.40
2023-06-21T03:00:18.089Z,232.01
2023-06-21T03:01:18.166Z,232.79
2023-06-21T03:02:18.185Z,234.46
2023-06-21T03:03:18.351Z,235.07
2023-06-21T03:04:18.274Z,234.60
2023-06-21T03:05:17.315Z,232.71
2023-06-21T03:06:18.423Z,231.94
2023-06-21T03:07:18.434Z,231.35
2023-06-21T03:08:18.460Z,230.64
2023-06-21T03:09:18.482Z,230.26
2023-06-21T03:10:18.624Z,230.24
2023-06-21T03:11:18.588Z,231.92
2023-06-21T03:12:18.658Z,234.12
2023-06-21T03:13:18.797Z,236.59
2023-06-21T03:14:18.781Z,236.86
2023-06-21T03:15:18.859Z,236.81
2023-06-21T03:16:18.907Z,236.92
2023-06-21T03:17:18.936Z,238.10
2023-06-21T03:18:19.005Z,238.09
2023-06-21T03:19:19.126Z,238.27
2023-06-21T03:20:18.123Z,239.72
2023-06-21T03:21:18.151Z,241.20
2023-06-21T03:22:18.197Z,242.63
2023-06-21T03:23:19.273Z,241.95
2023-06-21T03:24:19.296Z,241.52
2023-06-21T03:25:19.298Z,241.07
2023-06-21T03:26:18.372Z,237.98
2023-06-21T03:27:19.331Z,232.35
2023-06-21T03:28:19.390Z,228.20
2023-06-21T03:29:19.461Z,224.53
2023-06-21T03:30:19.593Z,222.32
2023-06-21T03:31:19.597Z,219.47
2023-06-21T03:32:19.701Z,217.35
2023-06-21T03:33:19.697Z,217.27
2023-06-21T03:34:19.642Z,214.61
2023-06-21T03:35:19.819Z,210.40
2023-06-21T03:36:19.813Z,210.37
2023-06-21T03:37:19.823Z,212.76
2023-06-21T03:38:19.825Z,214.53
2023-06-21T03:39:18.920Z,217.62
2023-06-21T03:40:19.949Z,220.91
2023-06-21T03:41:19.954Z,219.72
2023-06-21T03:42:18.949Z,222.78
2023-06-21T03:43:19.933Z,228.78
2023-06-21T03:44:19.958Z,234.07
2023-06-21T03:45:20.040Z,238.07
2023-06-21T03:46:20.064Z,240.59
2023-06-21T03:47:20.103Z,240.29
2023-06-21T03:48:20.072Z,240.98
2023-06-21T03:49:20.126Z,243.55
2023-06-21T03:50:20.235Z,246.61
2023-06-21T03:51:19.266Z,244.26
2023-06-21T03:52:20.293Z,242.81
2023-06-21T03:53:20.376Z,244.19
2023-06-21T03:54:20.472Z,245.20
2023-06-21T03:55:20.450Z,242.72
2023-06-21T03:56:20.439Z,243.81
2023-06-21T03:57:19.481Z,241.57
2023-06-21T03:58:19.513Z,239.57
2023-06-21T03:59:20.532Z,236.98
2023-06-21T04:00:19.575Z,233.35
2023-06-21T04:01:20.626Z,233.55
2023-06-21T04:02:20.596Z,235.90
2023-06-21T04:03:20.646Z,238.02
2023-06-21T04:04:20.728Z,238.54
2023-06-21T04:05:20.692Z,239.51
2023-06-21T04:06:20.702Z,241.44
2023-06-21T04:07:21.609Z,242.09
2023-06-21T04:08:19.789Z,244.41
2023-06-21T04:09:20.848Z,246.41
2023-06-21T04:10:20.843Z,244.21
2023-06-21T04:11:20.902Z,241.06
2023-06-21T04:12:20.927Z,238.72
2023-06-21T04:13:20.960Z,233.36
2023-06-21T04:14:20.973Z,234.33
2023-06-21T04:15:21.025Z,236.35
2023-06-21T04:16:21.088Z,236.31
2023-06-21T04:17:21.062Z,235.40
2023-06-21T04:18:20.079Z,235.10
2023-06-21T04:19:21.107Z,231.05
2023-06-21T04:20:20.091Z,226.35
2023-06-21T04:21:21.105Z,224.31
2023-06-21T04:22:20.153Z,220.91
2023-06-21T04:23:20.140Z,220.04
2023-06-21T04:24:21.223Z,219.33
2023-06-21T04:25:21.271Z,220.78
2023-06-21T04:26:20.286Z,223.15
2023-06-21T04:27:20.286Z,225.37
2023-06-21T04:28:21.308Z,222.39
2023-06-21T04:29:21.393Z,232.01
2023-06-21T04:30:21.332Z,243.96
2023-06-21T04:31:21.319Z,248.40
2023-06-21T04:32:20.357Z,239.55
2023-06-21T04:33:21.307Z,235.40
2023-06-21T04:34:20.353Z,232.22
2023-06-21T04:35:21.369Z,231.43
2023-06-21T04:36:21.382Z,231.98
2023-06-21T04:37:21.425Z,238.32
2023-06-21T04:38:21.459Z,237.86
2023-06-21T04:39:20.573Z,231.61
2023-06-21T04:40:21.561Z,227.39
2023-06-21T04:41:21.601Z,225.20
2023-06-21T04:42:21.667Z,227.88
2023-06-21T04:43:21.692Z,228.69
2023-06-21T04:44:21.712Z,227.41
2023-06-21T04:45:20.760Z,223.36
2023-06-21T04:46:21.879Z,218.82
2023-06-21T04:47:20.811Z,217.25
2023-06-21T04:48:21.835Z,215.32
2023-06-21T04:49:21.901Z,216.83
2023-06-21T04:50:29.044Z,213.23
2023-06-21T04:51:21.920Z,213.31
2023-06-21T04:52:21.918Z,213.72
2023-06-21T04:53:21.961Z,213.79
2023-06-21T04:54:20.923Z,217.05
2023-06-21T04:55:20.978Z,224.07
2023-06-21T04:56:21.869Z,222.09
2023-06-21T04:57:21.867Z,223.23
2023-06-21T04:58:20.882Z,221.71
2023-06-21T04:59:21.916Z,220.85
2023-06-21T05:00:20.895Z,222.58
2023-06-21T05:01:21.858Z,227.38
2023-06-21T05:02:21.882Z,228.61
2023-06-21T05:03:20.887Z,230.57
2023-06-21T05:04:21.814Z,228.82
2023-06-21T05:05:20.816Z,227.66
2023-06-21T05:06:21.861Z,230.93
2023-06-21T05:07:20.803Z,240.09
2023-06-21T05:08:21.806Z,232.49
2023-06-21T05:09:21.806Z,229.50
2023-06-21T05:10:21.787Z,230.59
2023-06-21T05:11:21.776Z,230.44
2023-06-21T05:12:20.772Z,224.13
2023-06-21T05:13:21.825Z,223.50
2023-06-21T05:14:21.760Z,228.95
2023-06-21T05:15:21.760Z,227.33
2023-06-21T05:16:21.748Z,226.59
2023-06-21T05:17:21.780Z,218.81
2023-06-21T05:18:21.729Z,217.03
2023-06-21T05:19:21.803Z,221.08
2023-06-21T05:20:21.721Z,223.72
2023-06-21T05:21:21.722Z,221.01
2023-06-21T05:22:21.710Z,217.56
2023-06-21T05:23:21.709Z,220.86
2023-06-21T05:24:21.740Z,222.56
2023-06-21T05:25:21.709Z,218.53
2023-06-21T05:26:21.677Z,219.76
2023-06-21T05:27:21.760Z,221.66
2023-06-21T05:28:20.681Z,225.18
2023-06-21T05:29:21.688Z,226.82
2023-06-21T05:30:21.684Z,226.99
2023-06-21T05:31:21.786Z,228.01
2023-06-21T05:32:21.784Z,229.21
2023-06-21T05:33:21.779Z,232.02
2023-06-21T05:34:21.888Z,233.26
2023-06-21T05:35:22.031Z,232.79
2023-06-21T05:36:20.973Z,234.56
2023-06-21T05:37:22.026Z,235.24
2023-06-21T05:38:22.065Z,238.11
2023-06-21T05:39:22.140Z,239.26
2023-06-21T05:40:22.179Z,239.70
2023-06-21T05:41:22.198Z,238.35
2023-06-21T05:42:22.273Z,238.31
2023-06-21T05:43:21.350Z,234.30
2023-06-21T05:44:21.317Z,229.67
2023-06-21T05:45:22.320Z,229.06
2023-06-21T05:46:22.468Z,230.37
2023-06-21T05:47:22.468Z,226.18
2023-06-21T05:48:22.545Z,214.32
2023-06-21T05:49:22.451Z,212.30
2023-06-21T05:50:21.544Z,221.77
2023-06-21T05:51:21.533Z,217.35
2023-06-21T05:52:22.615Z,212.52
2023-06-21T05:53:22.740Z,209.83
2023-06-21T05:54:22.669Z,215.99
2023-06-21T05:55:22.752Z,221.11
2023-06-21T05:56:22.816Z,223.11
2023-06-21T05:57:22.821Z,221.62
2023-06-21T05:58:22.927Z,217.39
2023-06-21T05:59:21.920Z,220.68
2023-06-21T06:00:23.802Z,225.95
2023-06-21T06:01:25.141Z,230.35
2023-06-21T06:02:23.072Z,233.08
2023-06-21T06:03:23.086Z,258.18
2023-06-21T06:04:23.022Z,283.99
2023-06-21T06:05:21.984Z,281.72
2023-06-21T06:06:21.979Z,298.01
2023-06-21T06:07:22.965Z,298.84
2023-06-21T06:08:22.973Z,279.75
2023-06-21T06:09:22.956Z,259.73
2023-06-21T06:10:22.941Z,254.26
2023-06-21T06:11:22.928Z,243.62
2023-06-21T06:12:22.995Z,229.13
2023-06-21T06:13:22.925Z,232.54
2023-06-21T06:14:23.393Z,279.68
2023-06-21T06:15:23.088Z,281.35
2023-06-21T06:16:22.906Z,259.45
2023-06-21T06:17:21.970Z,248.67
2023-06-21T06:18:21.907Z,233.54
2023-06-21T06:19:22.879Z,211.06
2023-06-21T06:20:21.906Z,202.13
2023-06-21T06:21:22.926Z,202.72
2023-06-21T06:22:22.908Z,198.58
2023-06-21T06:23:22.865Z,196.35
2023-06-21T06:24:21.875Z,194.85
2023-06-21T06:25:22.897Z,194.53
2023-06-21T06:26:22.868Z,192.16
2023-06-21T06:27:22.883Z,190.05
2023-06-21T06:28:22.833Z,189.06
2023-06-21T06:29:22.825Z,196.46
2023-06-21T06:30:22.866Z,193.53
2023-06-21T06:31:22.857Z,208.18
2023-06-21T06:32:22.841Z,223.24
2023-06-21T06:33:22.791Z,230.67
2023-06-21T06:34:22.788Z,236.80
2023-06-21T06:35:22.824Z,233.84
2023-06-21T06:36:22.817Z,239.21
2023-06-21T06:37:27.538Z,232.46
2023-06-21T06:38:22.773Z,228.84
2023-06-21T06:39:22.778Z,233.27
2023-06-21T06:40:22.756Z,230.54
2023-06-21T06:41:22.744Z,235.49
2023-06-21T06:42:22.776Z,233.31
2023-06-21T06:43:22.739Z,232.90
2023-06-21T06:44:21.762Z,242.20
2023-06-21T06:45:23.459Z,239.14
2023-06-21T06:46:22.735Z,230.15
2023-06-21T06:47:21.886Z,226.16
2023-06-21T06:48:22.719Z,224.83
2023-06-21T06:49:22.695Z,246.04
2023-06-21T06:50:21.783Z,249.05
2023-06-21T06:51:22.685Z,246.54
2023-06-21T06:52:22.806Z,224.50
2023-06-21T06:53:22.671Z,191.07
2023-06-21T06:54:22.723Z,186.64
2023-06-21T06:55:23.004Z,187.14
2023-06-21T06:56:22.643Z,193.31
2023-06-21T06:57:35.255Z,177.35
2023-06-21T06:58:22.622Z,170.13
2023-06-21T06:59:22.705Z,163.62
2023-06-21T07:00:22.969Z,141.28
2023-06-21T07:01:21.608Z,140.37
2023-06-21T07:02:22.633Z,150.11
2023-06-21T07:03:33.055Z,145.40
2023-06-21T07:04:22.824Z,145.56
2023-06-21T07:05:24.560Z,146.16
2023-06-21T07:06:22.640Z,148.81
2023-06-21T07:07:22.631Z,153.27
2023-06-21T07:08:22.683Z,155.69
2023-06-21T07:09:22.600Z,156.28
2023-06-21T07:10:22.620Z,159.24
2023-06-21T07:11:22.620Z,185.19
2023-06-21T07:12:22.583Z,181.80
2023-06-21T07:13:21.585Z,183.87
2023-06-21T07:14:22.605Z,179.56
2023-06-21T07:15:24.137Z,187.57
2023-06-21T07:16:22.551Z,185.89
2023-06-21T07:17:22.632Z,188.69
2023-06-21T07:18:22.954Z,181.94
2023-06-21T07:19:22.558Z,166.21
2023-06-21T07:20:22.589Z,173.45
2023-06-21T07:21:25.658Z,156.44
2023-06-21T07:22:22.565Z,153.89
2023-06-21T07:23:22.640Z,146.67
2023-06-21T07:24:23.028Z,144.24
2023-06-21T07:25:22.545Z,140.24
2023-06-21T07:26:25.291Z,140.06
2023-06-21T07:27:22.601Z,138.34
2023-06-21T07:28:22.482Z,140.32
2023-06-21T07:29:22.472Z,130.55
2023-06-21T07:30:22.507Z,129.61
2023-06-21T07:31:21.465Z,133.99
2023-06-21T07:32:22.605Z,133.18
2023-06-21T07:33:21.453Z,129.46
2023-06-21T07:34:22.452Z,127.72
2023-06-21T07:35:22.449Z,129.20
2023-06-21T07:36:22.435Z,120.34
2023-06-21T07:37:22.483Z,92.67
2023-06-21T07:38:22.439Z,83.17
2023-06-21T07:39:21.469Z,97.56
2023-06-21T07:40:22.431Z,89.35
2023-06-21T07:41:25.390Z,79.77
2023-06-21T07:42:22.557Z,79.87
2023-06-21T07:43:22.372Z,80.89
2023-06-21T07:44:21.413Z,83.38
2023-06-21T07:45:21.395Z,82.33
2023-06-21T07:46:21.588Z,91.98
2023-06-21T07:47:21.375Z,85.37
2023-06-21T07:48:22.384Z,89.92
2023-06-21T07:49:22.337Z,89.96
2023-06-21T07:50:23.283Z,105.53
2023-06-21T07:51:22.520Z,105.49
2023-06-21T07:52:22.516Z,102.25
2023-06-21T07:53:22.315Z,95.60
2023-06-21T07:54:22.303Z,94.58
2023-06-21T07:55:21.321Z,102.62
2023-06-21T07:56:22.535Z,97.52
2023-06-21T07:57:21.285Z,117.64
2023-06-21T07:58:22.275Z,146.27
2023-06-21T07:59:21.303Z,128.72
2023-06-21T08:00:21.281Z,108.20
2023-06-21T08:01:21.289Z,109.70
2023-06-21T08:02:22.380Z,95.93
2023-06-21T08:03:21.343Z,103.16
2023-06-21T08:04:22.311Z,97.41
2023-06-21T08:05:22.263Z,85.90
2023-06-21T08:06:22.285Z,99.74
2023-06-21T08:07:24.076Z,107.33
2023-06-21T08:08:22.522Z,104.06
2023-06-21T08:09:21.242Z,98.28
2023-06-21T08:10:22.269Z,91.10
2023-06-21T08:11:21.191Z,77.94
2023-06-21T08:12:22.216Z,75.41
2023-06-21T08:13:22.196Z,93.96
2023-06-21T08:14:22.185Z,103.93
2023-06-21T08:15:21.237Z,101.98
2023-06-21T08:16:22.168Z,95.13
2023-06-21T08:17:22.247Z,94.79
2023-06-21T08:18:21.185Z,93.27
2023-06-21T08:19:22.451Z,136.36
2023-06-21T08:20:22.204Z,140.41
2023-06-21T08:21:21.118Z,137.34
2023-06-21T08:22:22.121Z,126.14
2023-06-21T08:23:22.105Z,122.99
2023-06-21T08:24:21.162Z,114.53
2023-06-21T08:25:22.093Z,110.01
2023-06-21T08:26:24.086Z,107.99
2023-06-21T08:27:22.081Z,129.50
2023-06-21T08:28:22.102Z,120.90
2023-06-21T08:29:22.102Z,113.74
2023-06-21T08:30:22.086Z,128.70
2023-06-21T08:31:23.712Z,115.25
2023-06-21T08:32:22.285Z,99.26
2023-06-21T08:33:21.262Z,103.91
2023-06-21T08:34:22.273Z,88.46
2023-06-21T08:35:22.299Z,67.30
2023-06-21T08:36:21.362Z,64.87
2023-06-21T08:37:22.384Z,46.49
2023-06-21T08:38:28.033Z,41.36
2023-06-21T08:39:22.368Z,37.66
2023-06-21T08:40:22.378Z,37.74
2023-06-21T08:41:22.542Z,32.97
2023-06-21T08:42:22.352Z,8.39
2023-06-21T08:43:21.325Z,0.00
2023-06-21T08:44:22.377Z,0.00
2023-06-21T08:45:22.342Z,6.21
2023-06-21T08:46:22.370Z,6.16
2023-06-21T08:47:22.368Z,31.30
2023-06-21T08:48:22.293Z,36.74
2023-06-21T08:49:22.376Z,22.70
2023-06-21T08:50:21.454Z,24.92
2023-06-21T08:51:22.305Z,25.05
2023-06-21T08:52:21.261Z,21.26
2023-06-21T08:53:21.271Z,19.11
2023-06-21T08:54:21.268Z,24.39
2023-06-21T08:55:21.736Z,22.60
2023-06-21T08:56:22.562Z,20.93
2023-06-21T08:57:22.249Z,18.93
2023-06-21T08:58:21.270Z,34.48
2023-06-21T08:59:22.237Z,26.84
2023-06-21T09:00:22.332Z,35.34
2023-06-21T09:01:22.255Z,30.82
2023-06-21T09:02:22.311Z,43.28
2023-06-21T09:03:22.406Z,36.34
2023-06-21T09:04:22.423Z,37.61
2023-06-21T09:05:21.219Z,40.13
2023-06-21T09:06:21.184Z,42.50
2023-06-21T09:07:22.189Z,53.01
2023-06-21T09:08:21.214Z,43.94
2023-06-21T09:09:22.163Z,33.93
2023-06-21T09:10:22.229Z,46.07
2023-06-21T09:11:22.164Z,40.51
2023-06-21T09:12:22.158Z,57.74
2023-06-21T09:13:22.178Z,69.86
2023-06-21T09:14:22.258Z,66.57
2023-06-21T09:15:22.306Z,55.37
2023-06-21T09:16:22.453Z,56.09
2023-06-21T09:17:22.400Z,60.42
2023-06-21T09:18:22.367Z,60.86
2023-06-21T09:19:22.410Z,62.04
2023-06-21T09:20:22.442Z,56.84
2023-06-21T09:21:23.924Z,44.37
2023-06-21T09:22:22.477Z,39.86
2023-06-21T09:23:22.473Z,38.72
2023-06-21T09:24:22.456Z,64.63
2023-06-21T09:25:22.448Z,54.36
2023-06-21T09:26:22.423Z,68.73
2023-06-21T09:27:22.417Z,72.87
2023-06-21T09:28:22.397Z,122.79
2023-06-21T09:29:22.374Z,122.30
2023-06-21T09:30:36.092Z,89.63
2023-06-21T09:31:23.176Z,65.98
2023-06-21T09:32:22.590Z,56.88
2023-06-21T09:33:22.585Z,46.28
2023-06-21T09:34:22.418Z,52.60
2023-06-21T09:35:22.460Z,72.58
2023-06-21T09:36:21.509Z,80.98
2023-06-21T09:37:22.401Z,77.90
2023-06-21T09:38:22.333Z,81.81
2023-06-21T09:39:22.493Z,94.78
2023-06-21T09:40:22.339Z,68.02
2023-06-21T09:41:21.325Z,50.58
2023-06-21T09:42:21.337Z,45.35
2023-06-21T09:43:22.336Z,56.33
2023-06-21T09:44:22.362Z,83.10
2023-06-21T09:45:22.311Z,71.51
2023-06-21T09:46:22.276Z,46.07
2023-06-21T09:47:21.318Z,28.43
2023-06-21T09:48:21.598Z,28.23
2023-06-21T09:49:22.407Z,39.45
2023-06-21T09:50:22.406Z,35.54
2023-06-21T09:51:21.598Z,41.46
2023-06-21T09:52:22.402Z,40.07
2023-06-21T09:53:21.450Z,31.85
2023-06-21T09:54:22.448Z,25.54
2023-06-21T09:55:22.566Z,24.09
2023-06-21T09:56:22.562Z,33.20
2023-06-21T09:57:22.929Z,67.97
2023-06-21T09:58:21.638Z,67.53
2023-06-21T09:59:22.629Z,89.33
2023-06-21T10:00:21.676Z,61.34
2023-06-21T10:01:21.836Z,57.80
2023-06-21T10:02:22.823Z,29.54
2023-06-21T10:03:21.746Z,36.41
2023-06-21T10:04:22.805Z,36.01
2023-06-21T10:05:22.826Z,26.04
2023-06-21T10:06:21.803Z,32.63
2023-06-21T10:07:22.873Z,38.22
2023-06-21T10:08:22.841Z,44.38
2023-06-21T10:09:22.900Z,35.50
2023-06-21T10:10:22.938Z,27.47
2023-06-21T10:11:21.950Z,36.93
2023-06-21T10:12:22.973Z,42.82
2023-06-21T10:13:23.013Z,56.11
2023-06-21T10:14:22.048Z,53.35
2023-06-21T10:15:23.065Z,35.09
2023-06-21T10:16:23.075Z,25.49
2023-06-21T10:17:22.157Z,38.96
2023-06-21T10:18:23.200Z,38.16
2023-06-21T10:19:23.173Z,34.91
2023-06-21T10:20:23.201Z,30.94
2023-06-21T10:21:23.216Z,31.83
2023-06-21T10:22:22.270Z,26.42
2023-06-21T10:23:23.266Z,29.04
2023-06-21T10:24:22.291Z,24.37
2023-06-21T10:25:23.345Z,25.81
2023-06-21T10:26:23.357Z,23.80
2023-06-21T10:27:23.473Z,30.09
2023-06-21T10:28:23.446Z,24.44
2023-06-21T10:29:23.385Z,31.00
2023-06-21T10:30:23.428Z,49.54
2023-06-21T10:31:22.566Z,43.19
2023-06-21T10:32:22.605Z,23.78
2023-06-21T10:33:23.595Z,23.14
2023-06-21T10:34:23.209Z,33.91
2023-06-21T10:35:22.707Z,32.57
2023-06-21T10:36:22.819Z,25.17
2023-06-21T10:37:23.693Z,32.92
2023-06-21T10:38:22.736Z,40.17
2023-06-21T10:39:23.756Z,35.65
2023-06-21T10:40:24.180Z,35.73
2023-06-21T10:41:22.821Z,35.29
2023-06-21T10:42:22.851Z,31.22
2023-06-21T10:43:22.869Z,30.97
2023-06-21T10:44:24.954Z,33.54
2023-06-21T10:45:23.934Z,25.00
2023-06-21T10:46:23.149Z,24.94
2023-06-21T10:47:24.168Z,35.87
2023-06-21T10:48:24.012Z,40.15
2023-06-21T10:49:23.007Z,48.07
2023-06-21T10:50:24.016Z,40.31
2023-06-21T10:51:24.082Z,39.00
2023-06-21T10:52:24.143Z,29.35
2023-06-21T10:53:24.134Z,26.76
2023-06-21T10:54:24.158Z,25.00
2023-06-21T10:55:23.181Z,25.05
2023-06-21T10:56:24.230Z,40.30
2023-06-21T10:57:24.224Z,31.14
2023-06-21T10:58:23.254Z,27.15
2023-06-21T10:59:24.330Z,24.96
2023-06-21T11:00:23.349Z,32.29
2023-06-21T11:01:24.393Z,31.34
2023-06-21T11:02:24.438Z,37.56
2023-06-21T11:03:24.445Z,31.36
2023-06-21T11:04:23.540Z,34.27
2023-06-21T11:05:24.681Z,29.47
2023-06-21T11:06:23.612Z,33.16
2023-06-21T11:07:23.658Z,25.46
2023-06-21T11:08:23.694Z,27.73
2023-06-21T11:09:23.675Z,23.02
2023-06-21T11:10:23.682Z,31.37
2023-06-21T11:11:24.763Z,31.09
2023-06-21T11:12:24.819Z,25.74
2023-06-21T11:13:24.768Z,33.99
2023-06-21T11:14:23.835Z,26.79
2023-06-21T11:15:23.846Z,22.88
2023-06-21T11:16:24.897Z,27.42
2023-06-21T11:17:24.991Z,25.93
2023-06-21T11:18:25.002Z,30.11
2023-06-21T11:19:25.004Z,31.61
2023-06-21T11:20:24.021Z,27.67
2023-06-21T11:21:24.059Z,30.36
2023-06-21T11:22:24.086Z,24.70
2023-06-21T11:23:24.913Z,27.77
2023-06-21T11:24:25.135Z,28.01
2023-06-21T11:25:24.178Z,31.05
2023-06-21T11:26:25.157Z,27.77
2023-06-21T11:27:24.293Z,30.23
2023-06-21T11:28:24.258Z,32.40
2023-06-21T11:29:25.323Z,23.43
2023-06-21T11:30:25.354Z,25.00
2023-06-21T11:31:25.461Z,23.50
2023-06-21T11:32:24.388Z,29.78
2023-06-21T11:33:25.421Z,27.64
2023-06-21T11:34:24.414Z,31.92
2023-06-21T11:35:24.453Z,31.52
2023-06-21T11:36:24.492Z,30.77
2023-06-21T11:37:25.516Z,29.05
2023-06-21T11:38:25.562Z,33.49
2023-06-21T11:39:24.645Z,30.06
2023-06-21T11:40:25.821Z,28.58
2023-06-21T11:41:24.630Z,25.00
2023-06-21T11:42:24.665Z,23.43
2023-06-21T11:43:25.692Z,25.30
2023-06-21T11:44:25.703Z,25.57
2023-06-21T11:45:24.774Z,32.22
2023-06-21T11:46:25.781Z,31.75
2023-06-21T11:47:25.878Z,34.67
2023-06-21T11:48:24.920Z,34.21
2023-06-21T11:49:25.899Z,25.00
2023-06-21T11:50:26.322Z,29.04
2023-06-21T11:51:25.071Z,28.53
2023-06-21T11:52:25.045Z,32.88
2023-06-21T11:53:26.052Z,29.85
2023-06-21T11:54:25.098Z,24.52
2023-06-21T11:55:25.115Z,27.95
2023-06-21T11:56:25.169Z,28.41
2023-06-21T11:57:26.170Z,26.77
2023-06-21T11:58:26.230Z,27.24
2023-06-21T11:59:25.259Z,30.06
2023-06-21T12:00:25.321Z,29.97
2023-06-21T12:01:26.270Z,32.63
2023-06-21T12:02:25.446Z,39.13
2023-06-21T12:03:26.558Z,35.19
2023-06-21T12:04:25.492Z,37.34
2023-06-21T12:05:26.633Z,36.57
2023-06-21T12:06:26.431Z,35.29
2023-06-21T12:07:26.446Z,33.61
2023-06-21T12:08:26.890Z,33.47
2023-06-21T12:09:26.913Z,32.59
2023-06-21T12:10:26.958Z,36.63
2023-06-21T12:11:26.752Z,35.48
2023-06-21T12:12:26.962Z,39.41
2023-06-21T12:13:26.896Z,40.15
2023-06-21T12:14:26.803Z,42.31
2023-06-21T12:15:26.910Z,45.45
2023-06-21T12:16:26.104Z,42.56
2023-06-21T12:17:26.087Z,39.73
2023-06-21T12:18:26.190Z,39.05
2023-06-21T12:19:27.070Z,38.52
2023-06-21T12:20:27.322Z,39.75
2023-06-21T12:21:27.239Z,36.97
2023-06-21T12:22:26.122Z,36.81
2023-06-21T12:23:26.120Z,47.02
2023-06-21T12:24:26.165Z,47.86
2023-06-21T12:25:27.350Z,39.22
2023-06-21T12:26:26.259Z,36.91
2023-06-21T12:27:26.436Z,33.41
2023-06-21T12:28:26.433Z,35.06
2023-06-21T12:29:26.376Z,37.34
2023-06-21T12:30:27.875Z,34.21
2023-06-21T12:31:26.556Z,30.02
2023-06-21T12:32:26.572Z,25.00
2023-06-21T12:33:26.633Z,24.68
2023-06-21T12:34:27.729Z,26.37
2023-06-21T12:35:27.659Z,38.85
2023-06-21T12:36:27.692Z,37.70
2023-06-21T12:37:26.740Z,33.41